Jean, NV (89019)

9:55 AM PDT on March 30, 2017 (GMT -0700)
MC Lazy D | | Change Station

Elev 2703 ft 35.84 °N, 115.65 °W | Updated 1 minute ago

Clear
Clear
69.8 °F
Feels Like 69.8 °F
N
12.0
Wind Variable Wind from SSW

Today
High -- | Low -- °F
--% Chance of Precip.
Yesterday
High -- | Low -- °F
Precip. -- in
Pressure 29.71 in
Visibility 10.0 miles
Clouds Clear
Dew Point 38 °F
Humidity 31%
Rainfall 0.00 in
Snow Depth Not available.
6:31 AM 7:02 PM
Waxing Crescent, 9% visible
METAR KHND 301556Z 19015KT 10SM CLR 21/00 A2976 RMK AO2 SLP061 T02110000
Pressure 29.71 in
Visibility 10.0 miles
Clouds Clear
Dew Point 38 °F
Humidity 31%
Rainfall 0.00 in
Snow Depth Not available.
6:31 AM 7:02 PM
Waxing Crescent, 9% visible
METAR KHND 301556Z 19015KT 10SM CLR 21/00 A2976 RMK AO2 SLP061 T02110000

Get Your Daily Forecast Email!

Thanks for signing up!

Be on the lookout for a verification email in your inbox.

You'll start receiving severe weather alerts in your inbox..

×

10-Day Weather Forecast

Almanac

Astronomy

Mar. 30, 2017 Rise Set
Actual Time
Civil Twilight
Nautical Twilight
Astronomical Twilight
Moon
Length of Visible Light
Length of Day
Tomorrow will be .
, % of the Moon is Illuminated

Today's Extremes

State Highs State Lows

Community

WunderPhotos

Upload Photos

1,962,540 photos uploaded!

WunderBlog® & News

Nearby

Air Quality

  Air Quality AQ Index Pollutant
Not available.

Snow Depth

Station Depth Elevation

Earthquake Activity

City Distance Mag. Time & Date
Minimum magnitude displayed is 2.5.

Earthquake Activity

City Distance Mag. Time & Date
Minimum magnitude displayed is 2.5.

Coastal Water Temperatures

Place Temperature

Stations

Nearby Weather Stations

Station Location Temp. Windchill Dew Point Humidity Wind Precip. Elev Updated Type
                   

Watches & Warnings

High Wind Warning, Wind Advisory
Issued: 8:28 AM PDT Mar. 30, 2017 – National Weather Service

... High Wind Warning remains in effect until 11 PM PDT this
evening...
... Wind Advisory remains in effect from 11 PM this evening to
9 PM PDT Friday...

* timing... winds will increase significantly today... peak this
afternoon then decrease slightly tonight. Gusty winds will
continue through Friday, especially in the northwest portions of
the Las Vegas Valley.

* Winds... north to northwest winds gusting to around 60 mph
today. Gusting 35 to 50 mph through Friday.

* Impacts... strong winds may damage roofs... trees... and
unsecured structures. Dangerous travel conditions due to
strong Crosswinds and areas of blowing dust are expected.

Precautionary/preparedness actions...

Check the forecast and Road conditions before traveling and be
prepared for reduced visibility and strong Crosswinds...
especially in high-profile vehicles. Secure loose objects and
temporary fences. Take down temporary structures such as tents to
avoid damage.